createdAt,value
2023-03-30T00:00:06.080Z,2.70
2023-03-30T00:03:14.065Z,2.98
2023-03-30T00:06:21.640Z,2.70
2023-03-30T00:09:30.213Z,2.98
2023-03-30T00:12:36.296Z,2.90
2023-03-30T00:15:42.789Z,2.80
2023-03-30T00:18:47.994Z,2.77
2023-03-30T00:21:54.560Z,2.72
2023-03-30T00:25:03.343Z,2.80
2023-03-30T00:28:09.445Z,2.70
2023-03-30T00:31:17.470Z,2.67
2023-03-30T00:34:23.637Z,3.10
2023-03-30T00:37:30.740Z,2.75
2023-03-30T00:40:36.765Z,3.20
2023-03-30T00:43:42.895Z,2.95
2023-03-30T00:46:51.818Z,2.85
2023-03-30T00:50:01.561Z,3.27
2023-03-30T00:53:08.936Z,3.00
2023-03-30T00:56:14.944Z,2.80
2023-03-30T00:59:23.756Z,2.60
2023-03-30T01:02:30.934Z,2.40
2023-03-30T01:05:42.488Z,2.70
2023-03-30T01:08:50.929Z,2.47
2023-03-30T01:11:59.969Z,2.45
2023-03-30T01:15:05.540Z,2.45
2023-03-30T01:18:13.277Z,2.80
2023-03-30T01:21:46.379Z,2.87
2023-03-30T01:25:19.063Z,2.67
2023-03-30T01:28:57.184Z,2.83
2023-03-30T01:32:34.239Z,2.72
2023-03-30T01:36:24.739Z,2.85
2023-03-30T01:39:40.526Z,2.70
2023-03-30T01:42:57.380Z,2.80
2023-03-30T01:46:23.489Z,2.42
2023-03-30T01:50:13.001Z,3.05
2023-03-30T01:53:33.800Z,2.72
2023-03-30T01:57:04.409Z,2.75
2023-03-30T02:00:17.122Z,3.12
2023-03-30T02:03:29.474Z,2.72
2023-03-30T02:06:53.423Z,2.45
2023-03-30T02:10:01.274Z,2.60
2023-03-30T02:13:08.111Z,2.85
2023-03-30T02:16:18.520Z,2.72
2023-03-30T02:19:24.501Z,2.52
2023-03-30T02:22:30.797Z,3.15
2023-03-30T02:25:37.136Z,2.80
2023-03-30T02:28:43.840Z,2.62
2023-03-30T02:31:51.162Z,2.37
2023-03-30T02:35:22.072Z,2.92
2023-03-30T02:38:40.975Z,2.22
2023-03-30T02:41:58.045Z,2.40
2023-03-30T02:45:15.140Z,2.72
2023-03-30T02:48:41.584Z,2.70
2023-03-30T02:52:00.165Z,2.30
2023-03-30T02:55:13.452Z,2.42
2023-03-30T02:58:34.210Z,2.67
2023-03-30T03:01:58.210Z,2.67
2023-03-30T03:05:03.307Z,2.55
2023-03-30T03:08:04.862Z,2.77
2023-03-30T03:11:11.544Z,2.60
2023-03-30T03:14:18.555Z,2.70
2023-03-30T03:17:25.771Z,2.45
2023-03-30T03:20:34.960Z,2.62
2023-03-30T03:23:43.363Z,3.15
2023-03-30T03:26:53.083Z,3.05
2023-03-30T03:30:04.072Z,3.15
2023-03-30T03:33:15.101Z,2.80
2023-03-30T03:36:25.504Z,3.25
2023-03-30T03:39:33.967Z,3.62
2023-03-30T03:42:41.906Z,3.67
2023-03-30T03:45:48.383Z,3.20
2023-03-30T03:48:55.174Z,2.90
2023-03-30T03:52:02.526Z,3.30
2023-03-30T03:55:12.848Z,4.72
2023-03-30T03:58:21.240Z,7.08
2023-03-30T04:01:27.463Z,3.27
2023-03-30T04:04:32.824Z,3.33
2023-03-30T04:07:41.092Z,3.10
2023-03-30T04:10:46.707Z,2.98
2023-03-30T04:13:58.065Z,3.35
2023-03-30T04:23:43.361Z,2.85
2023-03-30T04:27:08.257Z,3.42
2023-03-30T04:30:15.428Z,3.15
2023-03-30T04:33:24.978Z,3.50
2023-03-30T04:36:39.701Z,3.33
2023-03-30T04:39:48.982Z,3.50
2023-03-30T04:43:14.226Z,3.37
2023-03-30T04:46:28.802Z,3.27
2023-03-30T04:49:34.978Z,3.33
2023-03-30T04:52:42.160Z,3.60
2023-03-30T04:55:49.193Z,3.22
2023-03-30T04:58:58.546Z,3.02
2023-03-30T05:02:08.091Z,10.30
2023-03-30T05:05:25.984Z,12.90
2023-03-30T05:08:42.293Z,5.78
2023-03-30T05:11:49.982Z,3.67
2023-03-30T05:15:15.338Z,7.85
2023-03-30T05:18:39.193Z,4.47
2023-03-30T05:21:47.127Z,4.28
2023-03-30T05:25:03.448Z,3.72
2023-03-30T05:28:15.798Z,4.10
2023-03-30T05:31:23.660Z,3.17
2023-03-30T05:34:41.861Z,4.28
2023-03-30T05:38:01.963Z,4.80
2023-03-30T05:41:17.619Z,3.92
2023-03-30T05:44:41.032Z,4.05
2023-03-30T05:48:08.653Z,3.62
2023-03-30T05:51:16.103Z,5.35
2023-03-30T05:54:33.370Z,6.67
2023-03-30T05:57:42.007Z,7.97
2023-03-30T06:00:50.844Z,11.45
2023-03-30T06:03:59.604Z,4.25
2023-03-30T06:07:07.146Z,3.60
2023-03-30T06:10:14.963Z,4.67
2023-03-30T06:13:22.181Z,3.42
2023-03-30T06:16:29.558Z,3.95
2023-03-30T06:19:39.422Z,2.85
2023-03-30T06:22:45.572Z,5.90
2023-03-30T06:25:57.096Z,7.72
2023-03-30T06:29:04.384Z,3.37
2023-03-30T06:32:12.861Z,2.75
2023-03-30T06:35:20.640Z,3.20
2023-03-30T06:38:25.690Z,3.42
2023-03-30T06:41:34.088Z,2.90
2023-03-30T06:44:42.294Z,3.87
2023-03-30T06:47:51.777Z,3.35
2023-03-30T06:51:01.389Z,2.92
2023-03-30T06:54:07.818Z,3.45
2023-03-30T06:57:15.960Z,3.85
2023-03-30T07:00:22.653Z,5.15
2023-03-30T07:03:48.157Z,10.13
2023-03-30T07:06:58.326Z,5.37
2023-03-30T07:10:04.866Z,4.42
2023-03-30T07:13:10.997Z,3.42
2023-03-30T07:16:23.871Z,3.67
2023-03-30T07:19:29.349Z,3.30
2023-03-30T07:22:35.781Z,3.72
2023-03-30T07:25:41.627Z,3.30
2023-03-30T07:28:55.576Z,6.45
2023-03-30T07:32:04.282Z,3.40
2023-03-30T07:35:11.971Z,3.45
2023-03-30T07:38:18.595Z,4.55
2023-03-30T07:41:27.206Z,2.92
2023-03-30T07:44:35.915Z,4.17
2023-03-30T07:47:45.241Z,4.42
2023-03-30T07:50:51.300Z,4.55
2023-03-30T07:54:03.450Z,8.45
2023-03-30T07:57:18.032Z,3.90
2023-03-30T08:00:24.398Z,4.30
2023-03-30T08:03:45.782Z,5.75
2023-03-30T08:06:51.128Z,4.92
2023-03-30T08:09:57.378Z,4.47
2023-03-30T08:13:03.157Z,4.25
2023-03-30T08:16:10.770Z,3.98
2023-03-30T08:19:16.109Z,3.20
2023-03-30T08:22:21.097Z,4.12
2023-03-30T08:25:26.049Z,4.53
2023-03-30T08:28:32.320Z,3.77
2023-03-30T08:31:39.816Z,4.08
2023-03-30T08:34:47.660Z,3.67
2023-03-30T08:37:53.654Z,4.50
2023-03-30T08:41:04.747Z,3.25
2023-03-30T08:44:45.735Z,3.33
2023-03-30T08:48:01.264Z,3.00
2023-03-30T08:51:18.642Z,2.77
2023-03-30T08:54:32.036Z,4.50
2023-03-30T08:57:48.398Z,4.40
2023-03-30T09:01:41.369Z,3.60
2023-03-30T09:05:32.077Z,3.83
2023-03-30T09:08:39.227Z,8.78
2023-03-30T09:11:51.117Z,6.50
2023-03-30T09:15:01.451Z,4.22
2023-03-30T09:18:19.052Z,3.72
2023-03-30T09:21:26.058Z,3.20
2023-03-30T09:24:36.697Z,3.60
2023-03-30T09:28:09.588Z,3.55
2023-03-30T09:31:25.161Z,3.37
2023-03-30T09:34:41.411Z,3.45
2023-03-30T09:37:48.538Z,4.40
2023-03-30T09:41:18.038Z,3.87
2023-03-30T09:44:40.341Z,5.08
2023-03-30T09:47:51.152Z,3.80
2023-03-30T09:51:00.158Z,4.70
2023-03-30T09:54:15.591Z,4.78
2023-03-30T09:57:42.850Z,4.15
2023-03-30T10:00:48.727Z,4.92
2023-03-30T10:03:56.872Z,4.65
2023-03-30T10:07:18.112Z,3.22
2023-03-30T10:10:15.612Z,3.87
2023-03-30T10:13:28.598Z,4.00
2023-03-30T10:16:43.207Z,5.62
2023-03-30T10:19:57.528Z,4.10
2023-03-30T10:23:09.251Z,3.45
2023-03-30T10:26:20.990Z,3.17
2023-03-30T10:29:29.967Z,3.47
2023-03-30T10:32:39.806Z,3.85
2023-03-30T10:35:52.924Z,3.67
2023-03-30T10:39:00.735Z,3.05
2023-03-30T10:42:09.529Z,3.42
2023-03-30T10:45:17.569Z,3.92
2023-03-30T10:48:40.293Z,3.15
2023-03-30T10:52:08.320Z,3.37
2023-03-30T10:55:21.556Z,3.45
2023-03-30T10:58:49.840Z,3.02
2023-03-30T11:02:13.192Z,3.33
2023-03-30T11:05:26.033Z,3.83
2023-03-30T11:08:47.842Z,4.40
2023-03-30T11:11:56.746Z,2.75
2023-03-30T11:15:08.517Z,3.00
2023-03-30T11:18:49.367Z,2.65
2023-03-30T11:22:03.402Z,4.17
2023-03-30T11:25:10.027Z,3.42
2023-03-30T11:28:35.646Z,3.27
2023-03-30T11:32:09.396Z,3.05
2023-03-30T11:35:22.556Z,3.22
2023-03-30T11:38:40.617Z,3.15
2023-03-30T11:42:09.720Z,7.97
2023-03-30T11:45:16.243Z,4.10
2023-03-30T11:48:31.865Z,6.95
2023-03-30T11:52:07.591Z,4.47
2023-03-30T11:55:46.212Z,4.25
2023-03-30T11:59:12.157Z,3.52
2023-03-30T12:02:34.215Z,5.37
2023-03-30T12:05:58.646Z,4.78
2023-03-30T12:12:33.574Z,3.05
2023-03-30T12:15:47.799Z,3.30
2023-03-30T12:18:58.858Z,3.60
2023-03-30T12:22:13.381Z,11.53
2023-03-30T12:25:38.058Z,6.03
2023-03-30T12:32:11.885Z,3.50
2023-03-30T12:35:19.695Z,2.45
2023-03-30T12:38:27.085Z,2.50
2023-03-30T12:41:32.932Z,3.50
2023-03-30T12:45:21.827Z,2.92
2023-03-30T12:48:50.755Z,2.80
2023-03-30T12:52:04.983Z,2.22
2023-03-30T12:55:41.165Z,2.20
2023-03-30T12:59:28.473Z,2.95
2023-03-30T13:02:59.521Z,2.83
2023-03-30T13:06:08.759Z,2.22
2023-03-30T13:09:30.819Z,2.10
2023-03-30T13:12:48.755Z,1.67
2023-03-30T13:16:09.125Z,2.35
2023-03-30T13:19:15.076Z,2.45
2023-03-30T13:22:30.800Z,3.50
2023-03-30T13:25:53.855Z,2.83
2023-03-30T13:29:10.148Z,3.58
2023-03-30T13:32:49.403Z,2.60
2023-03-30T13:36:22.428Z,2.75
2023-03-30T13:39:42.391Z,2.98
2023-03-30T13:43:04.447Z,2.80
2023-03-30T13:46:26.166Z,2.65
2023-03-30T13:49:54.594Z,3.00
2023-03-30T13:53:01.584Z,2.30
2023-03-30T13:56:07.721Z,2.45
2023-03-30T13:59:30.053Z,5.65
2023-03-30T14:05:42.894Z,2.77
2023-03-30T14:08:51.763Z,2.70
2023-03-30T14:12:05.134Z,2.42
2023-03-30T14:15:12.170Z,3.83
2023-03-30T14:18:18.281Z,2.72
2023-03-30T14:21:34.122Z,2.47
2023-03-30T14:24:45.480Z,3.72
2023-03-30T14:27:52.601Z,3.42
2023-03-30T14:31:15.953Z,2.70
2023-03-30T14:34:46.926Z,2.83
2023-03-30T14:37:57.175Z,4.70
2023-03-30T14:41:01.956Z,3.17
2023-03-30T14:44:19.507Z,2.77
2023-03-30T14:47:25.690Z,3.37
2023-03-30T14:50:31.664Z,2.72
2023-03-30T14:53:42.693Z,4.22
2023-03-30T14:56:49.179Z,4.40
2023-03-30T15:00:05.310Z,3.33
2023-03-30T15:03:22.933Z,2.92
2023-03-30T15:06:24.550Z,5.83
2023-03-30T15:09:36.207Z,3.50
2023-03-30T15:12:50.223Z,2.20
2023-03-30T15:15:55.272Z,2.20
2023-03-30T15:19:02.006Z,3.08
2023-03-30T15:22:10.873Z,2.50
2023-03-30T15:25:19.932Z,2.58
2023-03-30T15:28:31.067Z,3.15
2023-03-30T15:31:39.273Z,3.80
2023-03-30T15:34:46.045Z,4.03
2023-03-30T15:37:52.887Z,5.05
2023-03-30T15:41:01.230Z,5.92
2023-03-30T15:44:15.675Z,4.78
2023-03-30T15:47:26.047Z,5.53
2023-03-30T15:50:31.645Z,4.42
2023-03-30T15:53:46.089Z,3.92
2023-03-30T15:56:57.730Z,4.35
2023-03-30T16:00:12.115Z,6.40
2023-03-30T16:03:19.305Z,5.95
2023-03-30T16:06:26.865Z,5.92
2023-03-30T16:09:32.601Z,5.08
2023-03-30T16:12:43.466Z,4.75
2023-03-30T16:15:49.954Z,4.58
2023-03-30T16:18:56.450Z,5.67
2023-03-30T16:22:02.098Z,6.12
2023-03-30T16:25:09.209Z,9.30
2023-03-30T16:28:16.017Z,11.75
2023-03-30T16:31:29.390Z,9.98
2023-03-30T16:34:34.593Z,11.08
2023-03-30T16:37:41.681Z,11.35
2023-03-30T16:41:00.299Z,9.15
2023-03-30T16:44:08.450Z,10.00
2023-03-30T16:47:14.395Z,11.18
2023-03-30T16:50:39.279Z,28.73
2023-03-30T16:53:44.302Z,15.20
2023-03-30T16:56:50.032Z,15.05
2023-03-30T16:59:56.366Z,21.60
2023-03-30T17:03:02.682Z,33.92
2023-03-30T17:06:09.817Z,27.00
2023-03-30T17:09:15.245Z,18.85
2023-03-30T17:12:20.224Z,14.68
2023-03-30T17:15:26.923Z,12.00
2023-03-30T17:18:34.029Z,12.18
2023-03-30T17:21:42.571Z,12.65
2023-03-30T17:24:49.977Z,13.13
2023-03-30T17:27:56.806Z,11.65
2023-03-30T17:31:02.965Z,11.83
2023-03-30T17:34:11.213Z,12.33
2023-03-30T17:37:17.283Z,11.28
2023-03-30T17:40:38.649Z,9.33
2023-03-30T17:43:44.812Z,10.20
2023-03-30T17:46:52.551Z,9.43
2023-03-30T17:49:58.729Z,8.33
2023-03-30T17:53:06.634Z,9.10
2023-03-30T17:56:12.269Z,8.30
2023-03-30T17:59:18.979Z,9.35
2023-03-30T18:02:25.354Z,11.75
2023-03-30T18:05:30.665Z,9.85
2023-03-30T18:08:37.783Z,8.58
2023-03-30T18:11:45.962Z,7.40
2023-03-30T18:14:52.352Z,11.00
2023-03-30T18:17:58.828Z,9.95
2023-03-30T18:21:09.552Z,8.60
2023-03-30T18:24:16.231Z,10.78
2023-03-30T18:27:22.504Z,10.95
2023-03-30T18:30:47.399Z,13.35
2023-03-30T18:33:53.869Z,8.13
2023-03-30T18:37:02.068Z,8.68
2023-03-30T18:40:11.074Z,10.65
2023-03-30T18:43:18.828Z,7.92
2023-03-30T18:46:26.770Z,6.95
2023-03-30T18:49:33.128Z,6.97
2023-03-30T18:52:40.915Z,7.28
2023-03-30T18:55:52.121Z,7.90
2023-03-30T18:58:58.340Z,8.93
2023-03-30T19:02:05.397Z,7.97
2023-03-30T19:05:10.982Z,6.97
2023-03-30T19:08:17.386Z,7.92
2023-03-30T19:11:24.184Z,7.62
2023-03-30T19:14:28.892Z,7.40
2023-03-30T19:17:35.004Z,7.58
2023-03-30T19:20:43.726Z,6.55
2023-03-30T19:23:48.774Z,5.50
2023-03-30T19:26:55.677Z,5.87
2023-03-30T19:30:01.567Z,6.22
2023-03-30T19:33:12.552Z,7.15
2023-03-30T19:36:20.983Z,6.05
2023-03-30T19:39:27.935Z,7.80
2023-03-30T19:42:36.540Z,7.60
2023-03-30T19:45:43.185Z,7.65
2023-03-30T19:48:51.840Z,6.90
2023-03-30T19:51:58.106Z,7.25
2023-03-30T19:55:05.565Z,7.00
2023-03-30T19:58:12.906Z,7.30
2023-03-30T20:01:21.825Z,9.43
2023-03-30T20:04:27.898Z,6.85
2023-03-30T20:07:33.295Z,7.72
2023-03-30T20:10:40.365Z,8.30
2023-03-30T20:13:47.467Z,8.48
2023-03-30T20:16:54.761Z,9.53
2023-03-30T20:20:00.820Z,8.98
2023-03-30T20:23:07.908Z,7.05
2023-03-30T20:26:12.949Z,7.05
2023-03-30T20:29:18.792Z,6.58
2023-03-30T20:32:23.978Z,5.78
2023-03-30T20:35:32.322Z,5.90
2023-03-30T20:38:38.255Z,5.58
2023-03-30T20:41:47.630Z,5.25
2023-03-30T20:44:55.871Z,5.50
2023-03-30T20:48:03.039Z,4.22
2023-03-30T20:51:12.120Z,4.50
2023-03-30T20:54:20.080Z,4.60
2023-03-30T20:57:26.120Z,4.65
2023-03-30T21:00:33.031Z,4.78
2023-03-30T21:03:38.373Z,5.22
2023-03-30T21:06:44.910Z,5.25
2023-03-30T21:09:52.823Z,8.03
2023-03-30T21:12:59.987Z,4.37
2023-03-30T21:16:18.493Z,4.53
2023-03-30T21:19:18.735Z,4.85
2023-03-30T21:22:25.880Z,5.10
2023-03-30T21:25:34.734Z,4.15
2023-03-30T21:28:41.678Z,4.78
2023-03-30T21:31:48.695Z,3.95
2023-03-30T21:34:55.695Z,3.95
2023-03-30T21:38:03.942Z,4.25
2023-03-30T21:41:14.886Z,4.75
2023-03-30T21:44:21.603Z,3.87
2023-03-30T21:47:27.869Z,4.05
2023-03-30T21:50:33.873Z,4.10
2023-03-30T21:53:40.926Z,3.92
2023-03-30T21:56:47.440Z,4.47
2023-03-30T21:59:54.535Z,4.08
2023-03-30T22:03:03.592Z,4.90
2023-03-30T22:06:16.484Z,4.90
2023-03-30T22:09:22.913Z,4.87
2023-03-30T22:12:28.873Z,4.60
2023-03-30T22:15:35.306Z,3.90
2023-03-30T22:18:42.957Z,4.67
2023-03-30T22:21:49.663Z,5.30
2023-03-30T22:24:56.492Z,4.60
2023-03-30T22:28:06.930Z,4.75
2023-03-30T22:31:13.088Z,5.50
2023-03-30T22:34:21.676Z,4.62
2023-03-30T22:37:26.922Z,4.70
2023-03-30T22:40:32.739Z,4.35
2023-03-30T22:43:39.335Z,3.95
2023-03-30T22:46:44.643Z,4.65
2023-03-30T22:49:50.086Z,4.45
2023-03-30T22:52:55.540Z,4.30
2023-03-30T22:56:03.211Z,4.78
2023-03-30T22:59:10.487Z,4.78
2023-03-30T23:02:17.127Z,4.83
2023-03-30T23:05:24.510Z,5.60
2023-03-30T23:08:31.677Z,5.35
2023-03-30T23:11:42.210Z,4.40
2023-03-30T23:14:49.166Z,4.45
2023-03-30T23:17:55.346Z,4.75
2023-03-30T23:21:03.524Z,4.53
2023-03-30T23:24:09.599Z,4.62
2023-03-30T23:27:16.223Z,4.67
2023-03-30T23:30:24.076Z,4.17
2023-03-30T23:33:31.484Z,4.45
2023-03-30T23:36:38.788Z,5.05
2023-03-30T23:39:44.106Z,5.25
2023-03-30T23:42:49.811Z,4.62
2023-03-30T23:45:58.955Z,5.35
2023-03-30T23:49:06.180Z,4.80
2023-03-30T23:52:12.994Z,5.90
2023-03-30T23:55:22.914Z,5.50
2023-03-30T23:58:29.109Z,5.05
